Time;durP1;ratioP1;P1;durP2;ratioP2;P2;SDS_P1;SDS_P2;PMS_P1;PMS_P2;Temp;Humidity;BMP_temperature;BMP_pressure;BME280_temperature;BME280_humidity;BME280_pressure;Samples;Min_cycle;Max_cycle;Signal;HPM_P1;HPM_P2
2021/08/18 00:00:06;;;;;;;9.90;7.28;;;16.10;99.90;;;;;;5033888;28;20199;-60
2021/08/18 00:02:32;;;;;;;9.98;6.78;;;16.10;99.90;;;;;;5032535;28;20048;-60
2021/08/18 00:04:57;;;;;;;10.15;7.70;;;16.10;99.90;;;;;;5032441;28;20460;-60
2021/08/18 00:07:23;;;;;;;9.05;6.60;;;16.10;99.90;;;;;;5033800;28;20079;-61
2021/08/18 00:09:49;;;;;;;10.05;7.00;;;16.10;99.90;;;;;;5033375;28;20040;-60
2021/08/18 00:12:15;;;;;;;8.45;7.43;;;16.10;99.90;;;;;;5033614;28;20022;-60
2021/08/18 00:14:41;;;;;;;8.45;6.50;;;16.10;99.90;;;;;;5033784;28;20037;-60
2021/08/18 00:17:07;;;;;;;8.57;7.65;;;16.10;99.90;;;;;;5033524;28;20037;-61
2021/08/18 00:19:32;;;;;;;9.77;7.72;;;16.10;99.90;;;;;;5033560;28;20083;-60
2021/08/18 00:21:58;;;;;;;10.02;7.65;;;16.10;99.90;;;;;;5032012;28;20500;-61
2021/08/18 00:24:23;;;;;;;10.50;8.57;;;16.10;99.90;;;;;;5033404;28;20469;-61
2021/08/18 00:26:49;;;;;;;9.18;7.10;;;16.10;99.90;;;;;;5033504;28;20044;-61
2021/08/18 00:29:14;;;;;;;7.82;6.00;;;16.10;99.90;;;;;;5033509;28;20029;-61
2021/08/18 00:31:40;;;;;;;8.43;6.97;;;16.10;99.90;;;;;;5033195;28;20025;-60
2021/08/18 00:34:05;;;;;;;8.13;6.18;;;16.10;99.90;;;;;;5033095;28;20021;-61
2021/08/18 00:36:31;;;;;;;7.38;6.30;;;16.10;99.90;;;;;;5032182;28;20029;-60
2021/08/18 00:38:57;;;;;;;7.97;6.65;;;16.10;99.90;;;;;;5032988;28;20037;-61
2021/08/18 00:41:22;;;;;;;9.07;6.55;;;16.10;99.90;;;;;;5033092;28;20093;-61
2021/08/18 00:43:51;;;;;;;6.85;5.75;;;16.10;99.90;;;;;;5033193;28;20500;-61
2021/08/18 00:46:17;;;;;;;10.30;7.38;;;16.20;99.90;;;;;;5033034;28;20033;-61
2021/08/18 00:48:44;;;;;;;11.07;7.07;;;16.10;99.90;;;;;;5033162;28;20029;-61
2021/08/18 00:51:11;;;;;;;8.60;7.30;;;16.10;99.90;;;;;;5032698;28;20040;-61
2021/08/18 00:53:37;;;;;;;7.95;6.82;;;16.20;99.90;;;;;;5033179;28;20022;-60
2021/08/18 00:56:03;;;;;;;9.95;7.93;;;16.10;99.90;;;;;;5031537;28;20396;-60
2021/08/18 00:58:29;;;;;;;10.25;7.90;;;16.20;99.90;;;;;;5032986;28;20079;-61
2021/08/18 01:00:56;;;;;;;7.10;6.32;;;16.10;99.90;;;;;;5032925;28;20028;-61
2021/08/18 01:03:22;;;;;;;9.30;7.05;;;16.10;99.90;;;;;;5032856;28;20384;-60
2021/08/18 01:05:47;;;;;;;8.70;7.43;;;16.10;99.90;;;;;;5032771;28;20029;-60
2021/08/18 01:08:13;;;;;;;10.00;7.32;;;16.10;99.90;;;;;;5032900;28;20034;-60
2021/08/18 01:10:38;;;;;;;7.70;6.75;;;16.10;99.90;;;;;;5032609;28;20104;-60
2021/08/18 01:13:05;;;;;;;8.43;6.78;;;16.10;99.90;;;;;;5032668;28;20029;-60
2021/08/18 01:15:31;;;;;;;7.43;6.45;;;16.10;99.90;;;;;;5032794;28;20025;-60
2021/08/18 01:17:59;;;;;;;7.60;5.85;;;16.10;99.90;;;;;;5032609;28;20034;-60
2021/08/18 01:20:28;;;;;;;7.28;6.32;;;16.10;99.90;;;;;;5031631;28;20083;-60
2021/08/18 01:22:54;;;;;;;10.82;6.55;;;16.10;99.90;;;;;;5032604;28;20032;-60
2021/08/18 01:25:20;;;;;;;7.85;5.90;;;16.10;99.90;;;;;;5032562;28;20029;-60
2021/08/18 01:27:52;;;;;;;7.40;5.80;;;16.10;99.90;;;;;;5031404;28;20034;-61
2021/08/18 01:30:20;;;;;;;7.65;6.15;;;16.10;99.90;;;;;;5032617;28;20477;-60
2021/08/18 01:32:59;;;;;;;7.82;6.68;;;16.10;99.90;;;;;;5032702;28;20382;-60
2021/08/18 01:35:31;;;;;;;8.32;6.18;;;16.10;99.90;;;;;;5031397;28;20501;-60
2021/08/18 01:37:57;;;;;;;7.07;5.85;;;16.10;99.90;;;;;;5032656;28;20116;-61
2021/08/18 01:40:24;;;;;;;10.60;6.35;;;16.10;99.90;;;;;;5032496;28;20469;-61
2021/08/18 01:42:51;;;;;;;7.00;6.30;;;16.10;99.90;;;;;;5032435;28;20052;-61
2021/08/18 01:45:26;;;;;;;6.47;5.45;;;16.10;99.90;;;;;;5032373;28;20389;-60
2021/08/18 01:47:52;;;;;;;7.43;6.15;;;16.10;99.90;;;;;;5033901;28;20037;-61
2021/08/18 01:50:19;;;;;;;6.93;5.28;;;16.10;99.90;;;;;;5036477;28;20025;-60
2021/08/18 01:52:51;;;;;;;7.25;5.03;;;16.10;99.90;;;;;;5036219;28;20026;-61
2021/08/18 01:55:18;;;;;;;8.80;5.97;;;16.10;99.90;;;;;;5036307;28;20112;-60
2021/08/18 01:57:44;;;;;;;5.60;4.75;;;16.10;99.90;;;;;;5036003;28;20101;-60
2021/08/18 02:00:10;;;;;;;4.88;4.20;;;16.20;99.90;;;;;;5035984;28;20534;-60
2021/08/18 02:02:36;;;;;;;5.97;4.57;;;16.20;99.90;;;;;;5036038;28;20108;-60
2021/08/18 02:05:02;;;;;;;5.55;4.00;;;16.20;99.90;;;;;;5036166;28;20068;-60
2021/08/18 02:07:27;;;;;;;5.63;3.63;;;16.20;99.90;;;;;;5036090;28;20416;-61
2021/08/18 02:09:53;;;;;;;5.07;3.60;;;16.20;99.90;;;;;;5035951;28;20025;-61
2021/08/18 02:12:19;;;;;;;5.80;3.53;;;16.20;99.90;;;;;;5035496;28;20049;-61
2021/08/18 02:14:45;;;;;;;4.65;4.10;;;16.20;99.90;;;;;;5034535;28;20516;-61
2021/08/18 02:17:11;;;;;;;6.70;3.85;;;16.20;99.90;;;;;;5035707;28;20033;-61
2021/08/18 02:19:37;;;;;;;7.15;3.65;;;16.20;99.90;;;;;;5035800;28;20025;-61
2021/08/18 02:22:02;;;;;;;5.78;4.20;;;16.20;99.90;;;;;;5035660;28;20172;-61
2021/08/18 02:24:28;;;;;;;5.60;3.97;;;16.20;99.90;;;;;;5035586;28;20037;-61
2021/08/18 02:26:53;;;;;;;5.20;4.68;;;16.20;99.90;;;;;;5035468;28;20040;-61
2021/08/18 02:29:19;;;;;;;4.78;4.05;;;16.20;99.90;;;;;;5034259;28;20484;-60
2021/08/18 02:31:44;;;;;;;3.60;2.92;;;16.20;99.90;;;;;;5035049;28;20037;-61
2021/08/18 02:34:12;;;;;;;3.45;2.78;;;16.10;99.90;;;;;;5027876;28;20014;-61
2021/08/18 02:36:38;;;;;;;4.03;2.58;;;16.10;99.90;;;;;;5014842;28;20014;-61
2021/08/18 02:39:04;;;;;;;3.80;2.15;;;16.10;99.90;;;;;;5015076;28;20429;-61
2021/08/18 02:41:32;;;;;;;3.67;2.17;;;16.10;99.90;;;;;;5024168;28;20085;-61
2021/08/18 02:43:57;;;;;;;3.28;2.17;;;16.10;99.90;;;;;;5035241;28;20480;-61
2021/08/18 02:46:23;;;;;;;5.05;2.08;;;16.10;99.90;;;;;;5035265;28;20033;-61
2021/08/18 02:48:49;;;;;;;2.22;1.40;;;16.00;99.90;;;;;;5033967;28;20033;-61
2021/08/18 02:51:14;;;;;;;2.60;1.50;;;16.10;99.90;;;;;;5035127;28;20052;-61
2021/08/18 02:53:40;;;;;;;2.17;1.55;;;16.00;99.90;;;;;;5035163;28;20048;-61
2021/08/18 02:56:05;;;;;;;4.35;1.90;;;16.00;99.90;;;;;;5035007;28;20393;-60
2021/08/18 02:58:31;;;;;;;2.30;1.80;;;16.00;99.90;;;;;;5034561;28;20488;-61
2021/08/18 03:00:56;;;;;;;2.25;1.83;;;16.00;99.90;;;;;;5034521;28;20496;-61
2021/08/18 03:03:22;;;;;;;2.95;1.58;;;16.00;99.90;;;;;;5034883;28;20041;-61
2021/08/18 03:05:48;;;;;;;2.03;1.33;;;16.00;99.90;;;;;;5034991;28;20033;-61
2021/08/18 03:08:14;;;;;;;2.20;1.25;;;16.00;99.90;;;;;;5034822;28;20128;-61
2021/08/18 03:10:39;;;;;;;1.52;1.00;;;16.00;99.90;;;;;;5034724;28;20469;-61
2021/08/18 03:13:05;;;;;;;1.75;0.82;;;16.00;99.90;;;;;;5034452;28;20119;-61
2021/08/18 03:15:30;;;;;;;3.45;1.55;;;16.00;99.90;;;;;;5034858;28;20101;-61
2021/08/18 03:17:56;;;;;;;1.75;0.98;;;16.00;99.90;;;;;;5034069;28;20063;-61
2021/08/18 03:20:21;;;;;;;2.28;1.30;;;16.00;99.90;;;;;;5034707;28;20030;-61
2021/08/18 03:22:47;;;;;;;1.67;0.95;;;16.00;99.90;;;;;;5033375;28;20022;-61
2021/08/18 03:25:14;;;;;;;1.98;1.20;;;16.00;99.90;;;;;;5034438;28;20025;-61
2021/08/18 03:27:40;;;;;;;1.73;1.10;;;16.00;99.90;;;;;;5034356;28;20113;-61
2021/08/18 03:30:07;;;;;;;1.30;0.80;;;16.00;99.90;;;;;;5034553;28;20113;-61
2021/08/18 03:32:33;;;;;;;2.70;1.30;;;16.00;99.90;;;;;;5034344;28;20504;-61
2021/08/18 03:34:58;;;;;;;1.20;0.85;;;16.00;99.90;;;;;;5034602;28;20192;-61
2021/08/18 03:37:24;;;;;;;1.25;1.00;;;15.90;99.90;;;;;;5034284;28;20030;-61
2021/08/18 03:39:49;;;;;;;1.95;1.13;;;15.90;99.90;;;;;;5034279;28;20098;-63
2021/08/18 03:42:16;;;;;;;2.33;1.40;;;15.90;99.90;;;;;;5033961;28;20045;-61
2021/08/18 03:44:41;;;;;;;2.13;1.08;;;15.90;99.90;;;;;;5034244;28;20055;-61
2021/08/18 03:47:07;;;;;;;2.58;1.40;;;15.90;99.90;;;;;;5034128;28;20033;-61
2021/08/18 03:49:32;;;;;;;4.00;1.73;;;15.90;99.90;;;;;;5034175;28;20033;-61
2021/08/18 03:51:58;;;;;;;3.25;2.08;;;15.90;99.90;;;;;;5033874;28;20029;-61
2021/08/18 03:54:23;;;;;;;2.65;2.40;;;16.00;99.90;;;;;;5033938;28;20021;-61
2021/08/18 03:56:49;;;;;;;3.92;3.20;;;15.90;99.90;;;;;;5033964;28;20037;-61
2021/08/18 03:59:14;;;;;;;5.20;3.13;;;15.90;99.90;;;;;;5033688;28;20087;-61
2021/08/18 04:01:40;;;;;;;4.13;2.75;;;16.00;99.90;;;;;;5033061;28;20431;-61
2021/08/18 04:04:06;;;;;;;4.43;2.80;;;15.90;99.90;;;;;;5014511;28;20036;-61
2021/08/18 04:06:31;;;;;;;2.83;2.25;;;15.90;99.90;;;;;;5012177;28;20026;-61
2021/08/18 04:08:58;;;;;;;3.50;2.00;;;15.90;99.90;;;;;;5013923;28;20129;-61
2021/08/18 04:11:24;;;;;;;2.42;1.77;;;15.90;99.90;;;;;;5013584;28;20029;-61
2021/08/18 04:13:50;;;;;;;3.10;2.00;;;15.90;99.90;;;;;;5013765;28;20026;-61
2021/08/18 04:16:15;;;;;;;3.17;2.08;;;15.90;99.90;;;;;;5013926;28;20470;-61
2021/08/18 04:18:41;;;;;;;2.45;1.73;;;15.90;99.90;;;;;;5014043;28;20034;-61
2021/08/18 04:21:06;;;;;;;2.13;1.70;;;15.90;99.90;;;;;;5013832;28;20037;-61
2021/08/18 04:23:32;;;;;;;2.65;1.35;;;15.90;99.90;;;;;;5013651;28;20026;-60
2021/08/18 04:25:57;;;;;;;2.80;1.40;;;15.90;99.90;;;;;;5013615;28;20036;-61
2021/08/18 04:28:23;;;;;;;3.58;1.63;;;15.90;99.90;;;;;;5013630;28;20065;-61
2021/08/18 04:30:49;;;;;;;3.13;1.58;;;15.90;99.90;;;;;;5012214;28;20288;-61
2021/08/18 04:33:15;;;;;;;2.28;1.58;;;15.90;99.90;;;;;;5013608;28;20371;-61
2021/08/18 04:35:41;;;;;;;2.40;1.60;;;15.80;99.90;;;;;;5013475;28;20489;-61
2021/08/18 04:38:06;;;;;;;4.13;3.00;;;15.80;99.90;;;;;;5013442;28;20030;-61
2021/08/18 04:40:32;;;;;;;5.60;2.55;;;15.80;99.90;;;;;;5015539;28;20049;-61
2021/08/18 04:42:57;;;;;;;4.78;2.95;;;15.70;99.90;;;;;;5033074;28;20049;-61
2021/08/18 04:45:23;;;;;;;3.65;2.65;;;15.70;99.90;;;;;;5033216;28;20037;-61
2021/08/18 04:47:48;;;;;;;3.40;2.55;;;15.70;99.90;;;;;;5033135;28;20492;-61
2021/08/18 04:50:15;;;;;;;3.35;2.58;;;15.70;99.90;;;;;;5032983;28;20041;-61
2021/08/18 04:52:41;;;;;;;3.45;2.92;;;15.80;99.90;;;;;;5032999;28;20049;-61
2021/08/18 04:55:08;;;;;;;4.57;3.05;;;15.80;99.90;;;;;;5032424;28;20036;-61
2021/08/18 04:57:33;;;;;;;4.28;2.92;;;15.90;99.90;;;;;;5032724;28;20029;-61
2021/08/18 04:59:59;;;;;;;6.53;3.35;;;15.80;99.90;;;;;;5032426;28;20500;-61
2021/08/18 05:02:24;;;;;;;4.00;2.90;;;15.90;99.90;;;;;;5032654;28;20034;-61
2021/08/18 05:04:50;;;;;;;3.63;2.80;;;15.90;99.90;;;;;;5032861;28;20017;-61
2021/08/18 05:07:15;;;;;;;5.20;2.90;;;15.90;99.90;;;;;;5032225;28;20474;-61
2021/08/18 05:09:41;;;;;;;4.05;3.03;;;15.90;99.90;;;;;;5031766;28;20539;-61
2021/08/18 05:12:07;;;;;;;5.72;3.47;;;16.00;99.90;;;;;;5031959;28;20458;-61
2021/08/18 05:14:32;;;;;;;3.00;2.67;;;16.00;99.90;;;;;;5030778;28;20018;-61
2021/08/18 05:16:58;;;;;;;5.20;3.03;;;16.00;99.90;;;;;;5031744;28;20474;-61
2021/08/18 05:19:23;;;;;;;4.65;2.97;;;16.00;99.90;;;;;;5031972;28;20030;-61
2021/08/18 05:21:49;;;;;;;4.32;3.30;;;16.00;99.90;;;;;;5031900;28;20048;-61
2021/08/18 05:24:14;;;;;;;5.00;3.20;;;16.10;99.90;;;;;;5018073;28;20112;-61
2021/08/18 05:26:40;;;;;;;2.85;2.20;;;16.10;99.90;;;;;;5035905;28;20105;-61
2021/08/18 05:29:05;;;;;;;3.95;2.88;;;16.10;99.90;;;;;;5035883;28;20029;-61
2021/08/18 05:31:31;;;;;;;3.67;2.53;;;16.20;99.90;;;;;;5035777;28;20465;-62
2021/08/18 05:33:56;;;;;;;4.43;2.40;;;16.20;99.90;;;;;;5036192;28;20373;-61
2021/08/18 05:36:22;;;;;;;4.80;2.45;;;16.20;99.90;;;;;;5034465;28;20469;-61
2021/08/18 05:38:48;;;;;;;3.10;2.58;;;16.20;99.90;;;;;;5035644;28;20108;-61
2021/08/18 05:41:14;;;;;;;3.10;2.70;;;16.20;99.90;;;;;;5034392;28;20628;-61
2021/08/18 05:43:39;;;;;;;4.40;3.50;;;16.20;99.90;;;;;;5035603;28;20025;-61
2021/08/18 05:46:05;;;;;;;3.90;3.40;;;16.30;99.90;;;;;;5035789;28;20461;-61
2021/08/18 05:48:31;;;;;;;5.00;2.95;;;16.30;99.90;;;;;;5035631;28;20363;-61
2021/08/18 05:50:57;;;;;;;6.30;3.30;;;16.30;99.90;;;;;;5035590;28;20021;-61
2021/08/18 05:53:23;;;;;;;4.57;3.28;;;16.30;99.90;;;;;;5035313;28;20026;-61
2021/08/18 05:55:49;;;;;;;5.82;3.20;;;16.30;99.90;;;;;;5035523;28;20032;-61
2021/08/18 05:58:15;;;;;;;3.58;3.28;;;16.40;99.90;;;;;;5035405;28;20109;-61
2021/08/18 06:00:41;;;;;;;5.22;3.40;;;16.40;99.90;;;;;;5034181;28;20104;-61
2021/08/18 06:03:07;;;;;;;6.18;4.13;;;16.50;99.90;;;;;;5033954;28;20025;-61
2021/08/18 06:05:33;;;;;;;6.05;3.85;;;16.50;99.90;;;;;;5035330;28;20079;-61
2021/08/18 06:07:58;;;;;;;5.20;4.00;;;16.50;99.90;;;;;;5035055;28;20049;-61
2021/08/18 06:10:24;;;;;;;5.32;4.32;;;16.60;99.90;;;;;;5017441;28;20032;-61
2021/08/18 06:12:49;;;;;;;5.05;4.13;;;16.60;99.90;;;;;;5033975;28;20112;-61
2021/08/18 06:15:15;;;;;;;7.63;4.53;;;16.60;99.90;;;;;;5035132;28;20018;-61
2021/08/18 06:17:41;;;;;;;5.78;3.97;;;16.70;99.90;;;;;;5034589;28;20026;-61
2021/08/18 06:20:07;;;;;;;4.53;4.00;;;16.70;99.90;;;;;;5034530;28;20021;-61
2021/08/18 06:22:33;;;;;;;5.88;4.50;;;16.70;99.90;;;;;;5035210;28;20067;-61
2021/08/18 06:25:02;;;;;;;7.43;4.07;;;16.80;99.90;;;;;;5034911;28;20348;-61
2021/08/18 06:27:30;;;;;;;4.90;3.67;;;16.80;99.90;;;;;;5035194;28;20014;-61
2021/08/18 06:29:55;;;;;;;7.60;4.18;;;16.80;99.90;;;;;;5034622;28;20030;-61
2021/08/18 06:32:21;;;;;;;5.70;4.22;;;16.80;99.90;;;;;;5035151;28;20032;-61
2021/08/18 06:34:46;;;;;;;4.90;4.15;;;16.90;99.90;;;;;;5035063;28;20385;-61
2021/08/18 06:37:12;;;;;;;7.32;3.45;;;16.90;99.90;;;;;;5034938;28;20393;-61
2021/08/18 06:39:39;;;;;;;7.82;3.28;;;16.90;99.90;;;;;;5035074;28;20032;-61
2021/08/18 06:42:04;;;;;;;4.20;2.47;;;17.00;99.90;;;;;;5034637;28;20042;-61
2021/08/18 06:44:30;;;;;;;3.08;2.47;;;17.00;99.90;;;;;;5033606;28;20441;-61
2021/08/18 06:46:57;;;;;;;5.10;3.30;;;17.00;99.90;;;;;;5033386;28;20049;-61
2021/08/18 06:49:22;;;;;;;4.18;3.15;;;17.00;99.90;;;;;;5034190;28;20060;-61
2021/08/18 06:51:48;;;;;;;4.00;3.40;;;17.00;99.90;;;;;;5031902;28;20473;-61
2021/08/18 06:54:13;;;;;;;3.58;3.05;;;17.00;99.90;;;;;;5033088;28;20629;-61
2021/08/18 06:56:39;;;;;;;4.30;3.08;;;17.00;99.90;;;;;;5034327;28;20104;-61
2021/08/18 06:59:04;;;;;;;3.72;3.15;;;17.00;99.90;;;;;;5034492;28;20021;-61
2021/08/18 07:01:30;;;;;;;4.00;3.15;;;17.10;99.90;;;;;;5034547;28;20030;-61
2021/08/18 07:03:55;;;;;;;3.83;3.13;;;17.10;99.90;;;;;;5034233;28;20037;-61
2021/08/18 07:06:21;;;;;;;5.88;3.03;;;17.10;99.90;;;;;;5034219;28;20473;-62
2021/08/18 07:08:46;;;;;;;3.83;2.80;;;17.10;99.90;;;;;;5033403;28;20040;-61
2021/08/18 07:11:13;;;;;;;4.15;3.25;;;17.10;99.90;;;;;;5032778;28;20057;-62
2021/08/18 07:13:39;;;;;;;4.85;2.97;;;17.10;99.90;;;;;;5034087;28;20095;-62
2021/08/18 07:16:05;;;;;;;4.00;3.42;;;17.20;99.90;;;;;;5030330;28;20481;-61
2021/08/18 07:18:31;;;;;;;4.22;3.72;;;17.20;99.90;;;;;;5034524;28;20026;-62
2021/08/18 07:20:56;;;;;;;3.97;3.58;;;17.20;99.90;;;;;;5034380;28;20111;-61
2021/08/18 07:23:22;;;;;;;4.95;3.72;;;17.30;99.90;;;;;;5034529;28;20052;-62
2021/08/18 07:25:47;;;;;;;6.25;4.30;;;17.40;99.90;;;;;;5033290;28;20103;-61
2021/08/18 07:28:13;;;;;;;5.28;4.40;;;17.50;99.90;;;;;;5034421;28;20037;-61
2021/08/18 07:30:38;;;;;;;4.70;3.95;;;17.50;99.90;;;;;;5034360;28;20397;-61
2021/08/18 07:33:04;;;;;;;7.90;3.85;;;17.60;99.90;;;;;;5034210;28;20371;-61
2021/08/18 07:35:29;;;;;;;5.88;3.88;;;17.70;99.90;;;;;;5032901;28;20032;-61
2021/08/18 07:37:55;;;;;;;7.05;4.22;;;17.90;99.90;;;;;;5034263;28;20088;-61
2021/08/18 07:40:22;;;;;;;5.57;4.18;;;18.00;99.90;;;;;;5021392;28;20026;-61
2021/08/18 07:42:48;;;;;;;4.65;3.42;;;18.10;99.90;;;;;;5034143;28;20068;-61
2021/08/18 07:45:13;;;;;;;5.57;4.20;;;18.20;99.90;;;;;;5033687;28;20473;-61
2021/08/18 07:47:39;;;;;;;6.82;4.70;;;18.30;99.90;;;;;;5028821;28;20022;-61
2021/08/18 07:50:05;;;;;;;8.65;6.60;;;18.30;99.90;;;;;;5030360;28;20099;-61
2021/08/18 07:52:31;;;;;;;6.07;4.72;;;18.30;99.90;;;;;;5026455;28;20034;-61
2021/08/18 07:54:56;;;;;;;8.23;5.15;;;18.30;99.90;;;;;;5014292;28;20030;-61
2021/08/18 07:57:22;;;;;;;6.50;4.90;;;18.40;99.90;;;;;;5014043;28;20034;-61
2021/08/18 07:59:51;;;;;;;6.25;5.07;;;18.40;99.90;;;;;;5012893;28;20022;-61
2021/08/18 08:02:22;;;;;;;8.10;6.00;;;18.50;99.90;;;;;;5014003;28;20079;-61
2021/08/18 08:04:48;;;;;;;7.30;5.72;;;18.50;99.90;;;;;;5013872;28;20268;-61
2021/08/18 08:07:14;;;;;;;6.50;5.45;;;18.60;99.90;;;;;;5013942;28;20390;-61
2021/08/18 08:09:40;;;;;;;5.78;5.22;;;18.60;99.90;;;;;;5025049;28;20037;-61
2021/08/18 08:12:05;;;;;;;5.65;5.03;;;18.70;99.90;;;;;;5033588;28;20029;-61
2021/08/18 08:14:31;;;;;;;5.47;4.97;;;18.80;99.90;;;;;;5033690;28;20037;-61
2021/08/18 08:16:56;;;;;;;7.47;4.63;;;18.80;99.90;;;;;;5033317;28;20033;-61
2021/08/18 08:19:22;;;;;;;6.18;5.57;;;18.80;99.90;;;;;;5033269;28;20026;-61
2021/08/18 08:21:48;;;;;;;6.63;4.90;;;18.80;99.90;;;;;;5033457;28;20485;-61
2021/08/18 08:24:13;;;;;;;4.80;4.35;;;18.80;99.90;;;;;;5033371;28;20066;-61
2021/08/18 08:26:56;;;;;;;5.68;5.18;;;18.90;99.90;;;;;;5033127;28;20403;-61
2021/08/18 08:29:22;;;;;;;6.22;5.50;;;18.90;99.90;;;;;;5032247;28;20497;-61
2021/08/18 08:31:47;;;;;;;7.68;5.97;;;18.90;99.90;;;;;;5032038;28;20117;-61
2021/08/18 08:34:28;;;;;;;7.05;6.35;;;18.90;99.90;;;;;;5031321;28;20465;-61
2021/08/18 08:36:53;;;;;;;8.40;7.32;;;18.90;99.90;;;;;;5031247;28;20032;-61
2021/08/18 08:39:19;;;;;;;9.05;8.20;;;18.90;99.90;;;;;;5032731;28;20096;-61
2021/08/18 08:41:44;;;;;;;9.75;7.78;;;18.90;99.90;;;;;;5032041;28;20053;-61
2021/08/18 08:44:24;;;;;;;9.50;8.60;;;18.90;99.90;;;;;;5032370;28;20028;-61
2021/08/18 08:46:52;;;;;;;9.10;8.20;;;19.00;99.90;;;;;;5032357;28;20053;-62
2021/08/18 08:49:19;;;;;;;10.35;9.35;;;19.00;99.90;;;;;;5032288;28;20486;-61
2021/08/18 08:51:47;;;;;;;9.75;8.75;;;19.00;99.90;;;;;;5029621;28;20022;-61
2021/08/18 08:54:13;;;;;;;10.35;9.45;;;19.10;99.90;;;;;;5031355;28;20033;-62
2021/08/18 08:56:39;;;;;;;9.43;8.32;;;19.20;99.90;;;;;;5031504;28;20112;-61
2021/08/18 08:59:04;;;;;;;9.05;8.23;;;19.20;99.80;;;;;;5031860;28;20101;-62
2021/08/18 09:02:06;;;;;;;9.00;8.13;;;19.20;99.80;;;;;;5032330;28;20037;-62
2021/08/18 09:04:37;;;;;;;11.15;9.95;;;19.40;99.60;;;;;;5031099;28;20026;-61
2021/08/18 09:07:05;;;;;;;11.38;8.52;;;19.30;99.40;;;;;;5032032;28;20041;-61
2021/08/18 09:09:32;;;;;;;9.88;8.65;;;19.30;99.40;;;;;;5032423;28;20084;-61
2021/08/18 09:12:14;;;;;;;8.77;7.97;;;19.30;99.50;;;;;;5032011;28;20088;-62
2021/08/18 09:14:41;;;;;;;8.88;7.88;;;19.40;99.10;;;;;;5031536;28;20504;-61
2021/08/18 09:17:30;;;;;;;8.43;7.63;;;19.40;99.10;;;;;;5032614;28;20389;-61
2021/08/18 09:20:11;;;;;;;7.03;6.35;;;19.50;98.90;;;;;;5032531;28;20014;-61
2021/08/18 09:22:39;;;;;;;6.20;5.60;;;19.60;99.00;;;;;;5032530;28;20025;-61
2021/08/18 09:25:13;;;;;;;7.10;6.47;;;19.80;98.80;;;;;;5032553;28;20022;-61
2021/08/18 09:27:40;;;;;;;9.70;6.95;;;19.80;98.70;;;;;;5032495;28;20028;-61
2021/08/18 09:30:06;;;;;;;9.77;7.53;;;19.90;98.50;;;;;;5032239;28;20022;-61
2021/08/18 09:32:36;;;;;;;9.65;7.95;;;20.00;98.30;;;;;;5032295;28;20112;-62
2021/08/18 09:35:31;;;;;;;8.95;7.85;;;20.10;98.20;;;;;;5030479;28;20064;-62
2021/08/18 09:38:03;;;;;;;7.70;6.90;;;20.30;97.90;;;;;;5030036;28;20037;-62
2021/08/18 09:40:33;;;;;;;8.88;8.02;;;20.30;97.70;;;;;;5029723;28;20112;-62
2021/08/18 09:43:13;;;;;;;8.60;7.80;;;20.50;97.20;;;;;;5032293;28;20073;-62
2021/08/18 09:45:42;;;;;;;8.23;7.00;;;20.50;96.80;;;;;;5032466;28;20028;-62
2021/08/18 09:48:11;;;;;;;7.10;6.40;;;20.60;96.60;;;;;;5032028;28;20044;-62
2021/08/18 09:50:55;;;;;;;7.32;6.57;;;20.60;96.60;;;;;;5031011;28;20026;-61
2021/08/18 09:53:33;;;;;;;7.30;6.65;;;20.70;96.40;;;;;;5032319;28;20056;-62
2021/08/18 09:56:05;;;;;;;6.13;5.57;;;20.70;95.90;;;;;;5031717;28;20512;-62
2021/08/18 09:58:33;;;;;;;6.47;5.88;;;20.70;95.70;;;;;;5031982;28;20443;-62
2021/08/18 10:01:11;;;;;;;7.55;5.65;;;20.70;95.50;;;;;;5032174;28;20021;-62
2021/08/18 10:03:44;;;;;;;7.22;5.70;;;20.70;95.40;;;;;;5032568;28;20030;-62
2021/08/18 10:06:44;;;;;;;6.63;5.97;;;20.70;95.30;;;;;;5032234;28;20103;-62
2021/08/18 10:09:10;;;;;;;6.28;5.68;;;20.80;95.00;;;;;;5033738;28;20078;-62
2021/08/18 10:11:35;;;;;;;7.75;7.00;;;20.70;95.10;;;;;;5035510;28;20128;-62
2021/08/18 10:14:01;;;;;;;7.82;6.63;;;20.60;94.90;;;;;;5034643;28;20025;-62
2021/08/18 10:16:27;;;;;;;7.75;6.20;;;20.50;94.80;;;;;;5035663;28;20022;-62
2021/08/18 10:18:55;;;;;;;7.60;5.38;;;20.40;94.90;;;;;;5035501;28;20517;-62
2021/08/18 10:21:27;;;;;;;6.40;5.65;;;20.40;94.70;;;;;;5035552;28;20036;-62
2021/08/18 10:24:03;;;;;;;7.85;7.15;;;20.30;94.80;;;;;;5035413;28;20021;-62
2021/08/18 10:26:32;;;;;;;5.43;4.93;;;20.30;94.90;;;;;;5035582;28;20036;-62
2021/08/18 10:29:13;;;;;;;5.57;3.72;;;20.20;95.00;;;;;;5035163;28;20022;-62
2021/08/18 10:31:48;;;;;;;3.72;3.42;;;20.10;94.80;;;;;;5035039;28;20037;-62
2021/08/18 10:34:46;;;;;;;4.05;3.33;;;20.10;94.80;;;;;;5035226;28;20026;-62
2021/08/18 10:37:20;;;;;;;4.38;3.97;;;20.20;94.60;;;;;;5035016;28;20112;-62
2021/08/18 10:39:53;;;;;;;5.20;4.38;;;20.30;94.90;;;;;;5035280;28;20021;-62
2021/08/18 10:42:51;;;;;;;6.65;5.40;;;20.30;94.80;;;;;;5034908;28;20148;-62
2021/08/18 10:45:23;;;;;;;5.03;3.90;;;20.30;94.90;;;;;;5039084;28;20037;-62
2021/08/18 10:47:49;;;;;;;4.28;2.95;;;20.30;95.00;;;;;;5034445;28;20032;-62
2021/08/18 10:50:17;;;;;;;3.25;2.58;;;20.30;95.10;;;;;;5034132;28;20109;-62
2021/08/18 10:52:43;;;;;;;2.20;1.92;;;20.50;94.60;;;;;;5034343;28;20026;-62
2021/08/18 10:55:28;;;;;;;2.50;2.30;;;20.80;94.40;;;;;;5035182;28;20021;-61
2021/08/18 10:57:55;;;;;;;2.55;2.20;;;21.10;93.90;;;;;;5032020;28;20079;-61
2021/08/18 11:00:34;;;;;;;3.60;2.70;;;21.30;93.00;;;;;;5034924;28;20026;-62
2021/08/18 11:03:04;;;;;;;2.00;1.80;;;21.60;92.60;;;;;;5034754;28;20024;-62
2021/08/18 11:05:36;;;;;;;2.20;1.90;;;21.80;92.20;;;;;;5035050;28;20075;-62
2021/08/18 11:08:11;;;;;;;3.00;1.75;;;21.90;91.40;;;;;;5034696;28;20092;-62
2021/08/18 11:10:42;;;;;;;1.85;1.70;;;22.00;91.20;;;;;;5034661;28;20032;-62
2021/08/18 11:13:09;;;;;;;2.58;2.30;;;22.00;91.40;;;;;;5034725;28;20038;-62
2021/08/18 11:15:49;;;;;;;2.83;2.60;;;22.00;91.30;;;;;;5034384;28;20229;-62
2021/08/18 11:18:18;;;;;;;3.15;2.55;;;22.00;91.10;;;;;;5032083;28;20029;-62
2021/08/18 11:20:48;;;;;;;4.75;2.70;;;22.00;91.10;;;;;;5031919;28;20056;-62
2021/08/18 11:23:22;;;;;;;3.30;3.00;;;22.00;91.00;;;;;;5033660;28;20034;-62
2021/08/18 11:26:08;;;;;;;5.28;4.32;;;21.90;91.20;;;;;;5033789;28;20021;-62
2021/08/18 11:28:36;;;;;;;6.07;5.50;;;21.80;91.10;;;;;;5033862;28;20017;-61
2021/08/18 11:31:04;;;;;;;5.80;5.15;;;21.70;91.30;;;;;;5033791;28;20021;-62
2021/08/18 11:33:33;;;;;;;6.22;5.63;;;21.60;91.50;;;;;;5033731;28;20096;-62
2021/08/18 11:36:00;;;;;;;7.22;4.82;;;21.60;91.60;;;;;;5033694;28;20017;-62
2021/08/18 11:38:26;;;;;;;7.35;6.38;;;21.60;91.70;;;;;;5032186;28;20037;-62
2021/08/18 11:40:53;;;;;;;6.60;5.95;;;21.50;92.00;;;;;;5033515;28;20029;-62
2021/08/18 11:44:12;;;;;;;6.45;5.85;;;21.40;92.10;;;;;;5033178;28;20049;-62
2021/08/18 11:49:58;;;;;;;7.53;6.13;;;21.30;92.40;;;;;;4956662;28;20047;-62
2021/08/18 11:52:25;;;;;;;6.93;6.07;;;21.30;92.70;;;;;;5032788;28;20393;-62
2021/08/18 11:54:55;;;;;;;6.75;5.82;;;21.30;92.60;;;;;;5033184;28;20454;-62
2021/08/18 11:57:21;;;;;;;5.65;5.10;;;21.20;92.50;;;;;;5032066;28;20022;-62
2021/08/18 12:03:02;;;;;;;6.68;5.97;;;21.20;92.70;;;;;;4971932;28;20134;-62
2021/08/18 12:05:29;;;;;;;7.32;6.63;;;21.30;92.60;;;;;;5024397;28;20029;-62
2021/08/18 12:08:11;;;;;;;6.57;5.97;;;21.30;92.20;;;;;;5033146;28;20106;-62
2021/08/18 12:10:39;;;;;;;6.90;6.10;;;21.30;92.10;;;;;;5032682;28;20076;-62
2021/08/18 12:13:06;;;;;;;6.95;5.90;;;21.20;91.90;;;;;;5032956;28;20037;-62
2021/08/18 12:15:34;;;;;;;6.10;4.63;;;21.20;91.90;;;;;;5031770;28;20404;-62
2021/08/18 12:18:00;;;;;;;6.38;5.50;;;21.20;92.00;;;;;;5032888;28;20021;-62
2021/08/18 12:20:30;;;;;;;6.38;5.65;;;21.30;92.10;;;;;;5031319;28;20024;-62
2021/08/18 12:22:57;;;;;;;6.25;5.53;;;21.20;91.90;;;;;;5032550;28;20048;-62
2021/08/18 12:25:34;;;;;;;6.03;5.13;;;21.20;91.90;;;;;;5032746;28;20025;-62
2021/08/18 12:28:42;;;;;;;;;;;;;;;;;;;;;
2021/08/18 12:31:09;;;;;;;6.38;5.25;;;21.20;91.60;;;;;;5031813;28;20032;-62
2021/08/18 12:33:35;;;;;;;6.15;4.60;;;21.10;91.70;;;;;;5033101;28;20409;-62
2021/08/18 12:36:12;;;;;;;8.80;6.63;;;21.10;91.90;;;;;;5033284;28;20523;-62
2021/08/18 12:38:51;;;;;;;7.20;5.25;;;21.30;91.80;;;;;;5033174;28;20067;-62
2021/08/18 12:41:16;;;;;;;8.18;6.80;;;21.40;91.70;;;;;;5032725;28;20478;-62
2021/08/18 12:43:42;;;;;;;7.20;6.13;;;21.40;91.40;;;;;;5032890;28;20050;-62
2021/08/18 12:46:08;;;;;;;7.32;5.45;;;21.60;91.30;;;;;;5033040;28;20025;-62
2021/08/18 12:48:33;;;;;;;7.97;5.32;;;21.80;91.30;;;;;;5033052;28;20519;-62
2021/08/18 12:51:03;;;;;;;6.03;5.43;;;22.00;90.90;;;;;;5032958;28;20478;-62
2021/08/18 12:53:30;;;;;;;6.13;5.53;;;22.10;90.60;;;;;;5032799;28;20105;-62
2021/08/18 12:55:55;;;;;;;6.32;5.55;;;22.20;90.60;;;;;;5031223;28;20041;-62
2021/08/18 12:58:22;;;;;;;6.68;6.07;;;22.40;90.30;;;;;;5031748;28;20068;-61